createdAt,value
2014-06-19T00:00:29.212Z,20.86
2014-06-19T00:01:33.900Z,20.7
2014-06-19T00:02:38.590Z,20.54
2014-06-19T00:03:43.279Z,20.58
2014-06-19T00:04:47.969Z,20.72
2014-06-19T00:05:52.658Z,20.67
2014-06-19T00:06:57.645Z,20.77
2014-06-19T00:08:02.336Z,20.64
2014-06-19T00:09:07.026Z,20.66
2014-06-19T00:10:12.013Z,20.69
2014-06-19T00:11:16.702Z,20.74
2014-06-19T00:12:21.705Z,20.62
2014-06-19T00:13:26.393Z,20.58
2014-06-19T00:14:31.068Z,20.7
2014-06-19T00:15:35.756Z,20.49
2014-06-19T00:16:40.759Z,20.43
2014-06-19T00:17:45.448Z,20.54
2014-06-19T00:18:50.138Z,20.62
2014-06-19T00:19:55.124Z,20.52
2014-06-19T00:21:00.096Z,20.55
2014-06-19T00:22:05.394Z,20.57
2014-06-19T00:23:10.068Z,20.51
2014-06-19T00:24:14.773Z,20.46
2014-06-19T00:25:19.447Z,20.5
2014-06-19T00:26:24.136Z,20.41
2014-06-19T00:27:28.825Z,20.45
2014-06-19T00:28:33.515Z,20.3
2014-06-19T00:29:38.204Z,20.39
2014-06-19T00:30:43.191Z,20.39
2014-06-19T00:31:47.865Z,20.26
2014-06-19T00:32:52.867Z,20.32
2014-06-19T00:33:57.555Z,20.27
2014-06-19T00:35:02.248Z,20.21
2014-06-19T00:36:07.234Z,20.29
2014-06-19T00:37:11.923Z,20.06
2014-06-19T00:38:16.909Z,19.74
2014-06-19T00:39:21.583Z,19.95
2014-06-19T00:40:26.289Z,20.14
2014-06-19T00:41:30.978Z,19.99
2014-06-19T00:42:35.652Z,20.07
2014-06-19T00:43:40.342Z,20.19
2014-06-19T00:44:45.015Z,20.15
2014-06-19T00:45:50.001Z,20.1
2014-06-19T00:46:54.690Z,19.87
2014-06-19T00:47:59.366Z,19.82
2014-06-19T00:49:04.056Z,19.79
2014-06-19T00:50:08.744Z,19.46
2014-06-19T00:51:13.435Z,19.61
2014-06-19T00:52:18.108Z,19.9
2014-06-19T00:53:22.797Z,19.87
2014-06-19T00:54:27.768Z,19.78
2014-06-19T00:55:32.457Z,19.78
2014-06-19T00:56:37.147Z,19.73
2014-06-19T00:57:41.821Z,19.82
2014-06-19T00:58:46.510Z,19.92
2014-06-19T00:59:51.200Z,20.01
2014-06-19T01:00:56.186Z,19.84
2014-06-19T01:02:01.158Z,20
2014-06-19T01:03:05.848Z,19.89
2014-06-19T01:04:10.522Z,19.9
2014-06-19T01:05:15.211Z,19.95
2014-06-19T01:06:19.900Z,19.96
2014-06-19T01:07:24.590Z,19.98
2014-06-19T01:08:29.577Z,19.85
2014-06-19T01:09:34.266Z,19.85
2014-06-19T01:10:38.940Z,19.78
2014-06-19T01:11:43.926Z,19.8
2014-06-19T01:12:48.614Z,19.69
2014-06-19T01:13:53.289Z,19.76
2014-06-19T01:14:57.978Z,19.77
2014-06-19T01:16:02.670Z,19.66
2014-06-19T01:17:07.360Z,19.82
2014-06-19T01:18:12.034Z,19.87
2014-06-19T01:19:16.722Z,19.7
2014-06-19T01:20:21.412Z,19.68
2014-06-19T01:21:26.382Z,19.72
2014-06-19T01:22:31.072Z,19.52
2014-06-19T01:23:35.746Z,19.58
2014-06-19T01:24:40.434Z,19.61
2014-06-19T01:25:45.124Z,19.5
2014-06-19T01:26:49.814Z,19.48
2014-06-19T01:27:54.785Z,19.64
2014-06-19T01:28:59.770Z,19.53
2014-06-19T01:30:04.463Z,19.54
2014-06-19T01:31:09.434Z,19.37
2014-06-19T01:32:14.122Z,19.28
2014-06-19T01:33:18.813Z,19.36
2014-06-19T01:34:23.487Z,19.42
2014-06-19T01:35:28.176Z,19.46
2014-06-19T01:36:33.162Z,19.46
2014-06-19T01:37:37.836Z,19.46
2014-06-19T01:38:42.526Z,19.37
2014-06-19T01:39:47.215Z,19.4
2014-06-19T01:40:51.889Z,19.39
2014-06-19T01:41:56.579Z,19.36
2014-06-19T01:43:01.253Z,19.18
2014-06-19T01:44:05.942Z,19.22
2014-06-19T01:45:10.929Z,19.3
2014-06-19T01:46:15.602Z,19.21
2014-06-19T01:47:20.292Z,18.99
2014-06-19T01:48:25.278Z,18.97
2014-06-19T01:49:29.952Z,19.11
2014-06-19T01:50:34.938Z,19.08
2014-06-19T01:51:39.628Z,19.02
2014-06-19T01:52:44.302Z,19
2014-06-19T01:53:48.991Z,19.06
2014-06-19T01:54:53.664Z,18.8
2014-06-19T01:55:58.354Z,18.94
2014-06-19T01:57:02.342Z,19.24
2014-06-19T01:58:07.033Z,19.12
2014-06-19T01:59:11.721Z,19.09
2014-06-19T02:00:16.395Z,19.15
2014-06-19T02:01:21.084Z,19.12
2014-06-19T02:02:25.775Z,19.25
2014-06-19T02:03:30.449Z,19.1
2014-06-19T02:04:35.434Z,19.05
2014-06-19T02:05:40.125Z,18.81
2014-06-19T02:06:44.813Z,18.72
2014-06-19T02:07:49.488Z,18.9
2014-06-19T02:08:54.178Z,18.85
2014-06-19T02:09:58.868Z,18.8
2014-06-19T02:11:03.541Z,19.04
2014-06-19T02:12:08.230Z,19.01
2014-06-19T02:13:12.904Z,18.92
2014-06-19T02:14:17.594Z,18.86
2014-06-19T02:15:22.283Z,19.09
2014-06-19T02:16:27.254Z,18.82
2014-06-19T02:17:31.943Z,18.76
2014-06-19T02:18:36.632Z,18.84
2014-06-19T02:19:41.323Z,18.88
2014-06-19T02:20:45.996Z,18.75
2014-06-19T02:21:50.983Z,18.96
2014-06-19T02:22:55.656Z,18.95
2014-06-19T02:24:00.345Z,18.92
2014-06-19T02:25:05.334Z,19
2014-06-19T02:26:10.007Z,18.96
2014-06-19T02:27:14.994Z,18.93
2014-06-19T02:28:19.667Z,19.05
2014-06-19T02:29:24.356Z,18.88
2014-06-19T02:30:29.343Z,18.74
2014-06-19T02:31:34.017Z,18.76
2014-06-19T02:32:38.707Z,18.44
2014-06-19T02:33:43.395Z,18.58
2014-06-19T02:34:48.382Z,18.76
2014-06-19T02:35:53.057Z,18.67
2014-06-19T02:36:58.043Z,18.62
2014-06-19T02:38:02.734Z,18.48
2014-06-19T02:39:07.407Z,18.48
2014-06-19T02:40:12.393Z,18.36
2014-06-19T02:41:17.082Z,18.33
2014-06-19T02:42:21.756Z,18.54
2014-06-19T02:43:26.446Z,18.52
2014-06-19T02:44:31.136Z,18.38
2014-06-19T02:45:36.106Z,18.72
2014-06-19T02:46:40.796Z,18.74
2014-06-19T02:47:45.469Z,18.68
2014-06-19T02:48:49.471Z,18.55
2014-06-19T02:49:54.458Z,18.7
2014-06-19T02:50:59.444Z,18.61
2014-06-19T02:52:04.120Z,18.68
2014-06-19T02:53:09.106Z,18.9
2014-06-19T02:54:13.780Z,18.86
2014-06-19T02:55:18.469Z,18.47
2014-06-19T02:56:23.159Z,18.87
2014-06-19T02:57:27.833Z,18.94
2014-06-19T02:58:32.522Z,18.49
2014-06-19T02:59:37.211Z,18.55
2014-06-19T03:00:41.885Z,18.44
2014-06-19T03:01:46.574Z,18.72
2014-06-19T03:02:51.264Z,18.8
2014-06-19T03:03:55.938Z,18.67
2014-06-19T03:05:00.924Z,18.73
2014-06-19T03:06:05.616Z,18.77
2014-06-19T03:07:10.305Z,18.79
2014-06-19T03:08:14.979Z,18.72
2014-06-19T03:09:19.668Z,18.5
2014-06-19T03:10:24.654Z,18.71
2014-06-19T03:11:29.343Z,18.57
2014-06-19T03:12:34.034Z,18.7
2014-06-19T03:13:39.019Z,18.92
2014-06-19T03:14:43.693Z,18.64
2014-06-19T03:15:48.383Z,18.72
2014-06-19T03:16:53.072Z,18.84
2014-06-19T03:17:58.059Z,18.73
2014-06-19T03:19:02.748Z,18.72
2014-06-19T03:20:07.440Z,18.58
2014-06-19T03:21:12.113Z,18.63
2014-06-19T03:22:16.803Z,18.52
2014-06-19T03:23:21.789Z,18.66
2014-06-19T03:24:26.478Z,18.47
2014-06-19T03:25:31.152Z,18.23
2014-06-19T03:26:36.138Z,18.02
2014-06-19T03:27:40.828Z,18.04
2014-06-19T03:28:45.816Z,17.86
2014-06-19T03:29:50.504Z,17.9
2014-06-19T03:30:55.491Z,17.93
2014-06-19T03:32:00.181Z,18.36
2014-06-19T03:33:04.854Z,18.35
2014-06-19T03:34:09.841Z,18.26
2014-06-19T03:35:14.828Z,18.23
2014-06-19T03:36:19.814Z,18.02
2014-06-19T03:37:24.113Z,18
2014-06-19T03:38:28.786Z,18.34
2014-06-19T03:39:33.476Z,18.57
2014-06-19T03:40:38.165Z,18.42
2014-06-19T03:41:43.151Z,18.32
2014-06-19T03:42:48.138Z,18.38
2014-06-19T03:43:52.827Z,18.06
2014-06-19T03:44:57.517Z,18.18
2014-06-19T03:46:02.206Z,18.13
2014-06-19T03:47:07.194Z,18.12
2014-06-19T03:48:11.883Z,18.3
2014-06-19T03:49:16.557Z,18.44
2014-06-19T03:50:21.247Z,18.28
2014-06-19T03:51:26.233Z,18.3
2014-06-19T03:52:30.922Z,18.4
2014-06-19T03:53:35.596Z,18.7
2014-06-19T03:54:40.301Z,18.89
2014-06-19T03:55:45.287Z,18.55
2014-06-19T03:56:49.961Z,18.59
2014-06-19T03:57:54.651Z,18.69
2014-06-19T03:58:59.622Z,18.58
2014-06-19T04:00:04.311Z,18.52
2014-06-19T04:01:08.986Z,18.51
2014-06-19T04:02:13.677Z,18.49
2014-06-19T04:03:18.366Z,18.57
2014-06-19T04:04:23.039Z,18.54
2014-06-19T04:05:27.729Z,18.53
2014-06-19T04:06:32.403Z,18.3
2014-06-19T04:07:37.389Z,18.47
2014-06-19T04:08:42.078Z,18.88
2014-06-19T04:09:46.752Z,18.73
2014-06-19T04:10:51.441Z,18.75
2014-06-19T04:11:56.428Z,18.87
2014-06-19T04:13:01.118Z,18.74
2014-06-19T04:14:05.793Z,18.56
2014-06-19T04:15:10.482Z,18.53
2014-06-19T04:16:15.453Z,18.44
2014-06-19T04:17:20.143Z,18.69
2014-06-19T04:18:25.129Z,18.74
2014-06-19T04:19:29.803Z,18.77
2014-06-19T04:20:34.789Z,18.9
2014-06-19T04:21:39.478Z,19.03
2014-06-19T04:22:44.152Z,19.19
2014-06-19T04:23:48.842Z,18.98
2014-06-19T04:24:53.547Z,18.96
2014-06-19T04:25:58.235Z,18.98
2014-06-19T04:27:02.909Z,18.94
2014-06-19T04:28:07.899Z,18.84
2014-06-19T04:29:12.587Z,19.01
2014-06-19T04:30:17.574Z,19.14
2014-06-19T04:31:22.247Z,19.17
2014-06-19T04:32:26.937Z,19.16
2014-06-19T04:33:31.611Z,19.14
2014-06-19T04:34:36.300Z,19.06
2014-06-19T04:35:40.990Z,18.85
2014-06-19T04:36:45.664Z,18.77
2014-06-19T04:37:50.353Z,18.81
2014-06-19T04:38:55.340Z,18.78
2014-06-19T04:40:00.012Z,18.9
2014-06-19T04:41:04.703Z,19
2014-06-19T04:42:09.690Z,19.17
2014-06-19T04:43:14.364Z,18.92
2014-06-19T04:44:19.054Z,18.96
2014-06-19T04:45:24.040Z,19.13
2014-06-19T04:46:28.714Z,19.19
2014-06-19T04:47:33.402Z,19.09
2014-06-19T04:48:38.390Z,18.94
2014-06-19T04:49:43.063Z,19.27
2014-06-19T04:50:47.753Z,19.48
2014-06-19T04:51:52.443Z,19.66
2014-06-19T04:52:57.116Z,19.44
2014-06-19T04:54:02.102Z,19.58
2014-06-19T04:55:06.791Z,19.89
2014-06-19T04:56:11.483Z,19.78
2014-06-19T04:57:16.157Z,20.02
2014-06-19T04:58:20.846Z,20.08
2014-06-19T04:59:25.519Z,20.1
2014-06-19T05:00:30.210Z,20.13
2014-06-19T05:01:34.884Z,20.04
2014-06-19T05:02:39.573Z,20.06
2014-06-19T05:03:44.263Z,20.04
2014-06-19T05:04:48.936Z,19.94
2014-06-19T05:05:53.625Z,19.84
2014-06-19T05:06:57.627Z,19.6
2014-06-19T05:08:02.301Z,19.53
2014-06-19T05:09:06.990Z,19.36
2014-06-19T05:10:11.979Z,19.39
2014-06-19T05:11:16.653Z,19.64
2014-06-19T05:12:21.342Z,19.22
2014-06-19T05:13:26.032Z,19.44
2014-06-19T05:14:31.001Z,19.42
2014-06-19T05:15:35.988Z,19.47
2014-06-19T05:16:40.678Z,19.6
2014-06-19T05:17:45.351Z,19.49
2014-06-19T05:18:50.041Z,19.66
2014-06-19T05:19:54.731Z,19.77
2014-06-19T05:20:59.716Z,19.6
2014-06-19T05:22:04.703Z,19.98
2014-06-19T05:23:08.691Z,20.26
2014-06-19T05:24:13.678Z,20.4
2014-06-19T05:25:18.351Z,20.67
2014-06-19T05:26:23.041Z,20.81
2014-06-19T05:27:28.027Z,20.92
2014-06-19T05:28:32.717Z,20.94
2014-06-19T05:29:37.390Z,21.04
2014-06-19T05:30:42.080Z,20.84
2014-06-19T05:31:46.770Z,20.96
2014-06-19T05:32:51.444Z,21.5
2014-06-19T05:33:56.430Z,21.64
2014-06-19T05:35:01.118Z,21.5
2014-06-19T05:36:05.792Z,21.58
2014-06-19T05:37:10.484Z,21.63
2014-06-19T05:38:15.173Z,21.57
2014-06-19T05:39:19.862Z,20.88
2014-06-19T05:40:24.834Z,21.02
2014-06-19T05:41:29.523Z,20.91
2014-06-19T05:42:34.213Z,20.66
2014-06-19T05:43:39.199Z,20.76
2014-06-19T05:44:43.872Z,20.79
2014-06-19T05:45:48.562Z,20.63
2014-06-19T05:46:53.549Z,20.86
2014-06-19T05:47:58.237Z,21.1
2014-06-19T05:49:03.224Z,21.16
2014-06-19T05:50:07.897Z,21.31
2014-06-19T05:51:12.589Z,21.47
2014-06-19T05:52:17.278Z,21.77
2014-06-19T05:53:21.968Z,22.12
2014-06-19T05:54:26.656Z,22.04
2014-06-19T05:55:31.658Z,21.98
2014-06-19T05:56:36.349Z,22
2014-06-19T05:57:41.038Z,22.33
2014-06-19T05:58:45.727Z,22.23
2014-06-19T05:59:50.403Z,22.13
2014-06-19T06:00:55.091Z,22.33
2014-06-19T06:01:59.782Z,22.7
2014-06-19T06:03:04.470Z,22.98
2014-06-19T06:04:09.161Z,23.18
2014-06-19T06:05:13.866Z,23.42
2014-06-19T06:06:18.555Z,23.43
2014-06-19T06:07:23.541Z,23.58
2014-06-19T06:08:28.230Z,23.76
2014-06-19T06:09:32.921Z,23.92
2014-06-19T06:10:37.609Z,24.3
2014-06-19T06:11:42.299Z,25.61
2014-06-19T06:12:46.988Z,26.08
2014-06-19T06:13:51.678Z,27.43
2014-06-19T06:14:56.367Z,28.72
2014-06-19T06:16:01.057Z,30.2
2014-06-19T06:17:05.746Z,30.63
2014-06-19T06:18:10.733Z,30.48
2014-06-19T06:19:15.423Z,31.06
2014-06-19T06:20:20.113Z,30.94
2014-06-19T06:21:25.100Z,32.04
2014-06-19T06:22:29.790Z,33.36
2014-06-19T06:23:34.478Z,33.26
2014-06-19T06:24:39.465Z,34.36
2014-06-19T06:25:44.452Z,34.13
2014-06-19T06:26:48.453Z,34.45
2014-06-19T06:27:53.455Z,34.36
2014-06-19T06:28:58.187Z,34.9
2014-06-19T06:30:02.917Z,35.51
2014-06-19T06:31:07.648Z,35.68
2014-06-19T06:32:12.439Z,35.34
2014-06-19T06:33:17.152Z,34.92
2014-06-19T06:34:21.856Z,35.32
2014-06-19T06:35:26.575Z,33.69
2014-06-19T06:36:31.577Z,30.8
2014-06-19T06:37:36.280Z,29.24
2014-06-19T06:38:41.290Z,28
2014-06-19T06:39:46.282Z,27.98
2014-06-19T06:40:50.994Z,27.15
2014-06-19T06:41:55.694Z,27.2
2014-06-19T06:43:00.402Z,26.46
2014-06-19T06:44:05.095Z,25.75
2014-06-19T06:45:09.786Z,25.49
2014-06-19T06:46:14.478Z,25.32
2014-06-19T06:47:19.153Z,25.01
2014-06-19T06:48:24.141Z,25.01
2014-06-19T06:49:29.143Z,25.06
2014-06-19T06:50:33.833Z,24.53
2014-06-19T06:51:38.820Z,24.55
2014-06-19T06:52:43.511Z,24.59
2014-06-19T06:53:48.201Z,24.53
2014-06-19T06:54:52.875Z,24.44
2014-06-19T06:55:57.564Z,24.31
2014-06-19T06:57:02.255Z,24.5
2014-06-19T06:58:07.241Z,24.59
2014-06-19T06:59:11.932Z,24.42
2014-06-19T07:00:16.622Z,24.57
2014-06-19T07:01:21.312Z,24.46
2014-06-19T07:02:26.017Z,24.45
2014-06-19T07:03:31.003Z,24.53
2014-06-19T07:04:35.693Z,24.62
2014-06-19T07:05:40.381Z,24.68
2014-06-19T07:06:45.071Z,24.53
2014-06-19T07:07:49.761Z,24.87
2014-06-19T07:08:54.450Z,24.9
2014-06-19T07:09:59.436Z,24.82
2014-06-19T07:11:04.110Z,24.69
2014-06-19T07:12:08.799Z,24.5
2014-06-19T07:13:13.490Z,24.54
2014-06-19T07:14:18.180Z,24.82
2014-06-19T07:15:22.870Z,24.88
2014-06-19T07:16:27.856Z,24.97
2014-06-19T07:17:32.546Z,24.98
2014-06-19T07:18:37.234Z,25.11
2014-06-19T07:19:41.910Z,24.86
2014-06-19T07:20:46.895Z,24.38
2014-06-19T07:21:51.883Z,24.81
2014-06-19T07:22:56.571Z,25.18
2014-06-19T07:24:01.262Z,25.37
2014-06-19T07:25:05.950Z,25.19
2014-06-19T07:26:10.938Z,24.94
2014-06-19T07:27:15.627Z,24.9
2014-06-19T07:28:20.300Z,25.02
2014-06-19T07:29:24.991Z,25
2014-06-19T07:30:29.680Z,24.57
2014-06-19T07:31:33.979Z,24.94
2014-06-19T07:32:38.965Z,25.83
2014-06-19T07:33:43.654Z,25.8
2014-06-19T07:34:48.328Z,26.04
2014-06-19T07:35:53.017Z,26.28
2014-06-19T07:36:57.707Z,26.02
2014-06-19T07:38:02.396Z,25.86
2014-06-19T07:39:07.086Z,26.34
2014-06-19T07:40:11.775Z,25.86
2014-06-19T07:41:16.466Z,26.22
2014-06-19T07:42:21.155Z,26.53
2014-06-19T07:43:25.846Z,26.74
2014-06-19T07:44:30.534Z,26.37
2014-06-19T07:45:35.224Z,26.17
2014-06-19T07:46:39.913Z,26.02
2014-06-19T07:47:43.915Z,25.98
2014-06-19T07:48:48.589Z,25.67
2014-06-19T07:49:53.591Z,25.2
2014-06-19T07:50:58.265Z,25.15
2014-06-19T07:52:02.954Z,25.5
2014-06-19T07:53:07.644Z,25.57
2014-06-19T07:54:12.332Z,25.75
2014-06-19T07:55:17.008Z,25.81
2014-06-19T07:56:21.713Z,25.8
2014-06-19T07:57:26.684Z,25.58
2014-06-19T07:58:31.375Z,25.75
2014-06-19T07:59:36.063Z,25.84
2014-06-19T08:00:40.753Z,25.44
2014-06-19T08:01:45.739Z,25.27
2014-06-19T08:02:50.429Z,25.43
2014-06-19T08:03:55.117Z,25.48
2014-06-19T08:04:59.807Z,25.11
2014-06-19T08:06:04.793Z,25.31
2014-06-19T08:07:09.468Z,25.78
2014-06-19T08:08:14.172Z,25.43
2014-06-19T08:09:18.848Z,24.98
2014-06-19T08:10:23.537Z,24.36
2014-06-19T08:11:28.227Z,24.76
2014-06-19T08:12:32.916Z,25.01
2014-06-19T08:13:37.606Z,25.16
2014-06-19T08:14:42.592Z,25.71
2014-06-19T08:15:47.282Z,25.7
2014-06-19T08:16:51.970Z,25.74
2014-06-19T08:17:56.942Z,25.46
2014-06-19T08:19:01.631Z,25.8
2014-06-19T08:20:06.320Z,26.05
2014-06-19T08:21:11.010Z,25.82
2014-06-19T08:22:15.701Z,25.5
2014-06-19T08:23:20.673Z,25.62
2014-06-19T08:24:25.361Z,25.8
2014-06-19T08:25:30.051Z,25.9
2014-06-19T08:26:34.740Z,25.83
2014-06-19T08:27:39.430Z,25.84
2014-06-19T08:28:44.119Z,25.65
2014-06-19T08:29:48.137Z,25.7
2014-06-19T08:30:52.826Z,25.92
2014-06-19T08:31:57.516Z,25.91
2014-06-19T08:33:02.205Z,26.12
2014-06-19T08:34:06.895Z,26.24
2014-06-19T08:35:11.881Z,26.24
2014-06-19T08:36:16.572Z,26.9
2014-06-19T08:37:21.542Z,26.97
2014-06-19T08:38:26.232Z,26.9
2014-06-19T08:39:30.921Z,26.56
2014-06-19T08:40:34.923Z,26.76
2014-06-19T08:41:39.910Z,26.25
2014-06-19T08:42:44.599Z,26.06
2014-06-19T08:43:49.289Z,26.3
2014-06-19T08:44:53.978Z,26.35
2014-06-19T08:45:58.668Z,26.26
2014-06-19T08:47:03.356Z,26.51
2014-06-19T08:48:08.343Z,26.29
2014-06-19T08:49:13.033Z,26.37
2014-06-19T08:50:17.725Z,26.38
2014-06-19T08:51:22.711Z,25.68
2014-06-19T08:52:27.400Z,25.54
2014-06-19T08:53:35.417Z,25.69
2014-06-19T08:54:40.122Z,25.89
2014-06-19T08:55:44.796Z,25.76
2014-06-19T08:56:49.797Z,25.36
2014-06-19T08:57:54.488Z,25.17
2014-06-19T08:58:59.161Z,25.26
2014-06-19T09:00:03.850Z,25.34
2014-06-19T09:01:08.556Z,25.34
2014-06-19T09:02:13.543Z,25.5
2014-06-19T09:03:18.530Z,25.9
2014-06-19T09:04:23.219Z,26.2
2014-06-19T09:05:28.190Z,25.57
2014-06-19T09:06:32.880Z,25.35
2014-06-19T09:07:37.569Z,25.57
2014-06-19T09:08:42.260Z,25.92
2014-06-19T09:09:46.934Z,26.22
2014-06-19T09:10:51.936Z,26.35
2014-06-19T09:11:56.625Z,26.34
2014-06-19T09:13:01.315Z,26.37
2014-06-19T09:14:06.004Z,25.89
2014-06-19T09:15:10.694Z,26.11
2014-06-19T09:16:15.384Z,26.53
2014-06-19T09:17:20.370Z,26.68
2014-06-19T09:18:25.059Z,26.87
2014-06-19T09:19:29.733Z,26.17
2014-06-19T09:20:34.719Z,26.42
2014-06-19T09:21:39.409Z,26.67
2014-06-19T09:22:44.098Z,26.53
2014-06-19T09:23:48.787Z,26.33
2014-06-19T09:24:53.477Z,26.01
2014-06-19T09:25:58.168Z,26.38
2014-06-19T09:27:03.170Z,26.62
2014-06-19T09:28:08.156Z,26.58
2014-06-19T09:29:12.830Z,26.46
2014-06-19T09:30:17.519Z,26.61
2014-06-19T09:31:22.209Z,26.06
2014-06-19T09:32:26.898Z,26.2
2014-06-19T09:33:31.588Z,26.38
2014-06-19T09:34:36.277Z,26.63
2014-06-19T09:35:40.967Z,26.74
2014-06-19T09:36:45.953Z,26.64
2014-06-19T09:37:50.642Z,26.8
2014-06-19T09:38:55.332Z,26.72
2014-06-19T09:40:00.022Z,26.19
2014-06-19T09:41:04.710Z,26.27
2014-06-19T09:42:09.400Z,26.84
2014-06-19T09:43:14.386Z,26.99
2014-06-19T09:44:19.078Z,26.91
2014-06-19T09:45:23.767Z,27.24
2014-06-19T09:46:28.457Z,26.83
2014-06-19T09:47:33.131Z,26.15
2014-06-19T09:48:37.820Z,26.61
2014-06-19T09:49:42.510Z,27.14
2014-06-19T09:50:47.496Z,26.86
2014-06-19T09:51:52.184Z,26.62
2014-06-19T09:52:56.874Z,26.92
2014-06-19T09:54:00.876Z,26.93
2014-06-19T09:55:05.565Z,26.89
2014-06-19T09:56:10.239Z,26.94
2014-06-19T09:57:14.929Z,26.92
2014-06-19T09:58:19.636Z,27.01
2014-06-19T09:59:24.324Z,27.19
2014-06-19T10:00:29.015Z,26.89
2014-06-19T10:01:34.001Z,27.04
2014-06-19T10:02:38.690Z,27.26
2014-06-19T10:03:43.676Z,27.15
2014-06-19T10:04:48.366Z,27.1
2014-06-19T10:05:53.055Z,26.68
2014-06-19T10:06:58.042Z,26.82
2014-06-19T10:08:02.731Z,26.86
2014-06-19T10:09:07.717Z,27.25
2014-06-19T10:10:12.407Z,27.26
2014-06-19T10:11:17.111Z,27.24
2014-06-19T10:12:21.804Z,27.06
2014-06-19T10:13:26.493Z,26.77
2014-06-19T10:14:31.183Z,27.28
2014-06-19T10:15:36.168Z,27.58
2014-06-19T10:16:40.873Z,27.36
2014-06-19T10:17:45.564Z,27.53
2014-06-19T10:18:50.252Z,27.58
2014-06-19T10:19:54.943Z,27.54
2014-06-19T10:20:59.632Z,27.42
2014-06-19T10:22:04.321Z,27.4
2014-06-19T10:23:09.307Z,27.58
2014-06-19T10:24:14.012Z,27.96
2014-06-19T10:25:18.702Z,27.94
2014-06-19T10:26:23.392Z,28.13
2014-06-19T10:27:28.083Z,28.37
2014-06-19T10:28:32.787Z,28.18
2014-06-19T10:29:37.476Z,28.24
2014-06-19T10:30:42.167Z,28.54
2014-06-19T10:31:46.855Z,28.72
2014-06-19T10:32:51.545Z,29
2014-06-19T10:33:56.531Z,28.9
2014-06-19T10:35:01.221Z,28.19
2014-06-19T10:36:05.910Z,27.97
2014-06-19T10:37:10.615Z,28.28
2014-06-19T10:38:15.305Z,28.48
2014-06-19T10:39:19.994Z,28.46
2014-06-19T10:40:24.997Z,28.29
2014-06-19T10:41:29.984Z,28.23
2014-06-19T10:42:34.673Z,27.52
2014-06-19T10:43:39.378Z,27.94
2014-06-19T10:44:44.068Z,28.56
2014-06-19T10:45:49.054Z,28.39
2014-06-19T10:46:53.744Z,28.06
2014-06-19T10:47:58.449Z,27.97
2014-06-19T10:49:03.138Z,27.92
2014-06-19T10:50:07.828Z,27.88
2014-06-19T10:51:12.517Z,27.99
2014-06-19T10:52:17.222Z,28.07
2014-06-19T10:53:21.913Z,28.2
2014-06-19T10:54:26.602Z,28.22
2014-06-19T10:55:31.293Z,28.39
2014-06-19T10:56:35.981Z,28.46
2014-06-19T10:57:40.671Z,28.47
2014-06-19T10:58:45.360Z,28.42
2014-06-19T10:59:50.050Z,28.38
2014-06-19T11:00:54.739Z,27.92
2014-06-19T11:01:59.727Z,28
2014-06-19T11:03:04.416Z,28
2014-06-19T11:04:09.107Z,28.3
2014-06-19T11:05:13.795Z,28.1
2014-06-19T11:06:18.486Z,27.89
2014-06-19T11:07:23.174Z,27.63
2014-06-19T11:08:27.865Z,27.64
2014-06-19T11:09:32.553Z,27.19
2014-06-19T11:10:37.243Z,27.64
2014-06-19T11:11:41.932Z,27.62
2014-06-19T11:12:46.622Z,27.96
2014-06-19T11:13:51.296Z,27.98
2014-06-19T11:14:56.001Z,27.57
2014-06-19T11:16:00.690Z,27.35
2014-06-19T11:17:05.380Z,27.51
2014-06-19T11:18:10.054Z,27.26
2014-06-19T11:19:14.759Z,27.41
2014-06-19T11:20:19.745Z,27.36
2014-06-19T11:21:24.450Z,27.54
2014-06-19T11:22:28.454Z,27.84
2014-06-19T11:23:33.144Z,27.84
2014-06-19T11:24:37.832Z,27.61
2014-06-19T11:25:42.803Z,27.65
2014-06-19T11:26:47.508Z,27.5
2014-06-19T11:27:52.494Z,27.23
2014-06-19T11:28:57.184Z,27.78
2014-06-19T11:30:01.873Z,27.75
2014-06-19T11:31:06.563Z,27.7
2014-06-19T11:32:11.252Z,27.6
2014-06-19T11:33:15.925Z,27.83
2014-06-19T11:34:20.615Z,27.7
2014-06-19T11:35:25.304Z,27.81
2014-06-19T11:36:30.011Z,27.85
2014-06-19T11:37:34.702Z,27.4
2014-06-19T11:38:39.390Z,27.34
2014-06-19T11:39:44.080Z,27.56
2014-06-19T11:40:48.082Z,27.73
2014-06-19T11:41:52.770Z,27.88
2014-06-19T11:42:57.460Z,27.8
2014-06-19T11:44:02.150Z,27.73
2014-06-19T11:45:06.840Z,27.41
2014-06-19T11:46:11.528Z,27.5
2014-06-19T11:47:16.218Z,27.67
2014-06-19T11:48:20.907Z,27.59
2014-06-19T11:49:25.583Z,27.5
2014-06-19T11:50:30.273Z,27.57
2014-06-19T11:51:34.978Z,27.72
2014-06-19T11:52:39.667Z,27.64
2014-06-19T11:53:44.357Z,27.48
2014-06-19T11:54:49.062Z,27.57
2014-06-19T11:55:53.752Z,27.72
2014-06-19T11:56:58.441Z,27.82
2014-06-19T11:58:03.131Z,27.47
2014-06-19T11:59:07.819Z,27.64
2014-06-19T12:00:12.509Z,27.4
2014-06-19T12:01:17.198Z,27.5
2014-06-19T12:02:22.184Z,27.42
2014-06-19T12:03:27.173Z,27.74
2014-06-19T12:04:31.862Z,27.7
2014-06-19T12:05:36.552Z,27.71
2014-06-19T12:06:40.554Z,27.71
2014-06-19T12:07:45.243Z,27.96
2014-06-19T12:08:49.933Z,27.42
2014-06-19T12:09:54.621Z,27.37
2014-06-19T12:10:59.312Z,27.23
2014-06-19T12:12:04.001Z,27.37
2014-06-19T12:13:08.690Z,27.66
2014-06-19T12:14:13.676Z,27.77
2014-06-19T12:15:18.366Z,27.79
2014-06-19T12:16:23.055Z,27.75
2014-06-19T12:17:27.762Z,28
2014-06-19T12:18:32.436Z,27.9
2014-06-19T12:19:37.141Z,27.86
2014-06-19T12:20:41.831Z,27.79
2014-06-19T12:21:45.832Z,27.93
2014-06-19T12:22:50.521Z,27.99
2014-06-19T12:23:55.508Z,28.13
2014-06-19T12:25:00.198Z,27.83
2014-06-19T12:26:04.887Z,27.78
2014-06-19T12:27:09.576Z,27.89
2014-06-19T12:28:14.266Z,28.07
2014-06-19T12:29:18.955Z,28.34
2014-06-19T12:30:23.942Z,28.12
2014-06-19T12:31:28.633Z,27.9
2014-06-19T12:32:33.323Z,28.24
2014-06-19T12:33:38.012Z,28.11
2014-06-19T12:34:42.701Z,27.85
2014-06-19T12:35:47.390Z,28.04
2014-06-19T12:36:52.376Z,27.79
2014-06-19T12:37:57.364Z,27.49
2014-06-19T12:39:02.053Z,27.84
2014-06-19T12:40:06.742Z,27.72
2014-06-19T12:41:11.431Z,27.92
2014-06-19T12:42:16.418Z,28.22
2014-06-19T12:43:21.107Z,27.78
2014-06-19T12:44:25.799Z,27.62
2014-06-19T12:45:30.488Z,27.76
2014-06-19T12:46:35.177Z,27.62
2014-06-19T12:47:39.867Z,27.68
2014-06-19T12:48:44.557Z,27.88
2014-06-19T12:49:49.245Z,27.82
2014-06-19T12:50:53.935Z,27.75
2014-06-19T12:51:58.624Z,27.95
2014-06-19T12:53:03.298Z,27.8
2014-06-19T12:54:07.988Z,27.04
2014-06-19T12:55:12.974Z,27.16
2014-06-19T12:56:17.663Z,26.94
2014-06-19T12:57:22.353Z,26.96
2014-06-19T12:58:27.044Z,26.92
2014-06-19T12:59:32.031Z,27.02
2014-06-19T13:00:36.720Z,27.14
2014-06-19T13:01:41.409Z,27.18
2014-06-19T13:02:46.396Z,27.2
2014-06-19T13:03:51.085Z,27.22
2014-06-19T13:04:55.759Z,27.25
2014-06-19T13:06:00.448Z,27.47
2014-06-19T13:07:05.138Z,27.35
2014-06-19T13:08:10.124Z,27.48
2014-06-19T13:09:14.813Z,27.57
2014-06-19T13:10:19.800Z,27.67
2014-06-19T13:11:24.489Z,27.66
2014-06-19T13:12:29.492Z,27.46
2014-06-19T13:13:34.183Z,27.38
2014-06-19T13:14:38.872Z,27.52
2014-06-19T13:15:43.561Z,27.26
2014-06-19T13:16:48.250Z,27.28
2014-06-19T13:17:52.940Z,27.16
2014-06-19T13:18:57.629Z,26.93
2014-06-19T13:20:02.303Z,26.86
2014-06-19T13:21:07.305Z,27.1
2014-06-19T13:22:12.291Z,26.76
2014-06-19T13:23:16.980Z,26.84
2014-06-19T13:24:21.671Z,26.92
2014-06-19T13:25:26.361Z,27.15
2014-06-19T13:26:31.052Z,27.03
2014-06-19T13:27:35.741Z,26.8
2014-06-19T13:28:40.430Z,26.97
2014-06-19T13:29:45.400Z,27.25
2014-06-19T13:30:50.105Z,27.28
2014-06-19T13:31:54.795Z,27.35
2014-06-19T13:32:59.484Z,27.38
2014-06-19T13:34:04.174Z,27.18
2014-06-19T13:35:08.863Z,27.42
2014-06-19T13:36:13.553Z,27.35
2014-06-19T13:37:18.258Z,27.28
2014-06-19T13:38:22.948Z,27.28
2014-06-19T13:39:27.639Z,27.66
2014-06-19T13:40:32.328Z,27.46
2014-06-19T13:41:37.033Z,27.22
2014-06-19T13:42:42.019Z,27.11
2014-06-19T13:43:46.709Z,27.04
2014-06-19T13:44:51.399Z,27.05
2014-06-19T13:45:56.385Z,27.31
2014-06-19T13:47:01.075Z,26.85
2014-06-19T13:48:05.764Z,27.23
2014-06-19T13:49:10.454Z,27.29
2014-06-19T13:50:15.159Z,27.21
2014-06-19T13:51:19.850Z,27.17
2014-06-19T13:52:24.538Z,27.08
2014-06-19T13:53:29.229Z,27.12
2014-06-19T13:54:33.918Z,26.7
2014-06-19T13:55:38.607Z,26.8
2014-06-19T13:56:43.296Z,26.99
2014-06-19T13:57:47.986Z,26.9